Time;durP1;ratioP1;P1;durP2;ratioP2;P2;SDS_P1;SDS_P2;PMS_P1;PMS_P2;Temp;Humidity;BMP_temperature;BMP_pressure;BME280_temperature;BME280_humidity;BME280_pressure;Samples;Min_cycle;Max_cycle;Signal;HPM_P1;HPM_P2
2022/07/10 00:02:06;;;;;;;3.00;2.08;;;;;;;18.16;69.37;98860.33;1743279;82;21510;-43
2022/07/10 00:04:33;;;;;;;3.70;1.90;;;;;;;18.04;69.89;98860.98;1743663;81;21575;-43
2022/07/10 00:07:01;;;;;;;4.17;2.15;;;;;;;17.96;70.32;98863.06;1707784;83;20906;-43
2022/07/10 00:09:29;;;;;;;3.23;2.30;;;;;;;17.89;70.71;98863.21;1743629;81;21598;-43
2022/07/10 00:11:57;;;;;;;3.27;2.30;;;;;;;17.83;70.93;98856.66;1707792;83;21071;-43
2022/07/10 00:14:24;;;;;;;3.02;2.42;;;;;;;17.78;71.25;98856.55;1707514;84;20981;-43
2022/07/10 00:16:52;;;;;;;3.70;2.30;;;;;;;17.79;71.52;98861.44;1743560;81;21021;-43
2022/07/10 00:19:19;;;;;;;3.45;2.25;;;;;;;17.78;71.52;98863.41;1707763;83;21033;-43
2022/07/10 00:21:47;;;;;;;6.35;2.70;;;;;;;17.78;71.68;98857.91;1707762;84;20985;-43
2022/07/10 00:24:14;;;;;;;3.00;2.00;;;;;;;17.81;71.75;98868.03;1707697;84;22409;-43
2022/07/10 00:26:42;;;;;;;5.42;2.50;;;;;;;17.86;71.64;98864.66;1707632;84;21071;-43
2022/07/10 00:29:10;;;;;;;3.15;2.10;;;;;;;17.85;71.57;98863.10;1743662;82;20990;-43
2022/07/10 00:31:37;;;;;;;5.10;2.10;;;;;;;17.79;71.58;98858.70;1743416;82;21025;-43
2022/07/10 00:34:04;;;;;;;3.77;2.22;;;;;;;17.71;71.76;98863.55;1743604;81;21058;-43
2022/07/10 00:36:32;;;;;;;2.75;2.20;;;;;;;17.69;71.84;98865.92;1743690;81;21559;-43
2022/07/10 00:38:59;;;;;;;2.20;2.00;;;;;;;17.65;72.02;98858.36;1743291;81;21602;-43
2022/07/10 00:41:26;;;;;;;2.27;2.08;;;;;;;17.61;72.07;98859.62;1743693;82;20985;-43
2022/07/10 00:44:00;;;;;;;3.80;2.62;;;;;;;17.57;72.11;98858.25;1707765;84;21037;-43
2022/07/10 00:46:26;;;;;;;3.55;1.85;;;;;;;17.54;72.17;98852.25;1707979;83;21012;-43
2022/07/10 00:48:53;;;;;;;3.90;1.90;;;;;;;17.51;72.17;98847.61;1707761;83;21228;-43
2022/07/10 00:51:22;;;;;;;3.12;2.20;;;;;;;17.45;72.12;98842.42;1707571;84;20973;-43
2022/07/10 00:53:50;;;;;;;2.70;2.12;;;;;;;17.42;72.27;98837.80;1733157;82;21512;-43
2022/07/10 00:56:20;;;;;;;2.33;1.95;;;;;;;17.40;72.28;98831.94;1707828;84;21520;-43
2022/07/10 00:58:47;;;;;;;3.47;2.10;;;;;;;17.38;72.22;98829.61;1707990;84;21096;-43
2022/07/10 01:01:14;;;;;;;2.12;1.92;;;;;;;17.37;72.26;98829.45;1743489;81;21280;-43
2022/07/10 01:03:41;;;;;;;4.45;2.10;;;;;;;17.34;72.22;98829.49;1743457;82;21057;-43
2022/07/10 01:06:08;;;;;;;3.30;1.98;;;;;;;17.30;72.26;98825.45;1707836;83;21566;-43
2022/07/10 01:08:36;;;;;;;2.47;2.27;;;;;;;17.30;72.33;98830.94;1743500;82;21053;-43
2022/07/10 01:11:03;;;;;;;3.10;2.20;;;;;;;17.32;72.22;98830.52;1743652;82;21061;-43
2022/07/10 01:13:32;;;;;;;4.40;2.10;;;;;;;17.36;72.19;98830.64;1707687;83;20937;-43
2022/07/10 01:15:59;;;;;;;4.65;2.10;;;;;;;17.44;71.95;98833.24;1707508;84;20933;-43
2022/07/10 01:18:26;;;;;;;3.20;2.30;;;;;;;17.45;71.74;98834.80;1707805;84;21468;-43
2022/07/10 01:20:57;;;;;;;3.15;2.30;;;;;;;17.45;71.68;98834.20;1707506;84;22169;-43
2022/07/10 01:23:24;;;;;;;2.77;2.20;;;;;;;17.50;71.66;98832.95;1707657;84;21061;-43
2022/07/10 01:25:51;;;;;;;3.92;2.35;;;;;;;17.52;71.42;98825.88;1743310;82;23293;-43
2022/07/10 01:28:20;;;;;;;3.52;2.40;;;;;;;17.55;71.24;98827.77;1743410;81;20891;-43
2022/07/10 01:30:49;;;;;;;3.30;2.52;;;;;;;17.57;71.05;98821.25;1743864;82;21602;-43
2022/07/10 01:33:17;;;;;;;2.92;2.10;;;;;;;17.57;70.93;98822.63;1707812;83;20974;-43
2022/07/10 01:35:45;;;;;;;2.62;2.05;;;;;;;17.55;70.86;98823.66;1743778;81;21045;-43
2022/07/10 01:38:12;;;;;;;4.30;2.25;;;;;;;17.48;70.91;98822.98;1743544;82;21209;-43
2022/07/10 01:40:40;;;;;;;2.27;2.08;;;;;;;17.42;71.03;98816.46;1743283;82;20978;-43
2022/07/10 01:43:07;;;;;;;3.35;2.30;;;;;;;17.41;71.07;98818.42;1738382;81;21032;-43
2022/07/10 01:45:34;;;;;;;3.25;2.22;;;;;;;17.39;71.10;98816.69;1734812;82;20986;-43
2022/07/10 01:48:02;;;;;;;4.05;2.10;;;;;;;17.39;71.01;98819.42;1741966;82;21077;-43
2022/07/10 01:50:29;;;;;;;3.92;2.17;;;;;;;17.38;70.99;98809.06;1748765;82;21241;-43
2022/07/10 01:52:57;;;;;;;2.47;2.27;;;;;;;17.41;70.90;98814.31;1748891;82;20969;-43
2022/07/10 01:55:24;;;;;;;2.15;1.95;;;;;;;17.40;70.76;98810.02;1749063;82;20935;-43
2022/07/10 01:57:52;;;;;;;3.05;2.20;;;;;;;17.39;70.65;98812.58;1749197;82;21016;-43
2022/07/10 02:00:19;;;;;;;2.40;1.92;;;;;;;17.32;70.75;98812.13;1749063;81;21033;-43
2022/07/10 02:04:40;;;;;;;3.67;2.22;;;;;;;17.35;70.68;98809.12;1748945;81;21114;-43
2022/07/10 02:05:15;;;;;;;5.42;2.08;;;;;;;17.32;70.64;98805.86;1748645;81;21100;-43
2022/07/10 02:07:42;;;;;;;2.02;1.82;;;;;;;17.31;70.62;98813.90;1748773;82;21077;-43
2022/07/10 02:10:09;;;;;;;2.20;1.85;;;;;;;17.30;70.57;98813.13;1749023;81;20965;-43
2022/07/10 02:12:36;;;;;;;3.80;2.05;;;;;;;17.28;70.57;98806.52;1749010;81;20981;-43
2022/07/10 02:15:05;;;;;;;2.83;2.10;;;;;;;17.29;70.53;98803.94;1748969;81;22030;-43
2022/07/10 02:17:32;;;;;;;6.33;2.10;;;;;;;17.34;70.42;98806.98;1749299;82;21021;-43
2022/07/10 02:20:00;;;;;;;2.80;2.10;;;;;;;17.39;70.33;98809.84;1749063;82;21090;-43
2022/07/10 02:22:26;;;;;;;3.90;2.40;;;;;;;17.44;70.13;98808.58;1748895;82;21033;-43
2022/07/10 02:24:53;;;;;;;2.72;2.22;;;;;;;17.47;69.95;98811.87;1749116;81;21591;-43
2022/07/10 02:27:20;;;;;;;2.40;2.20;;;;;;;17.49;69.75;98810.25;1749024;82;21135;-43
2022/07/10 02:29:47;;;;;;;3.02;2.30;;;;;;;17.47;69.64;98809.91;1748949;81;21029;-43
2022/07/10 02:32:14;;;;;;;4.35;2.25;;;;;;;17.42;69.69;98810.39;1748762;81;22038;-43
2022/07/10 02:34:42;;;;;;;5.15;2.20;;;;;;;17.36;69.70;98809.31;1749079;81;21814;-43
2022/07/10 02:37:09;;;;;;;3.72;2.20;;;;;;;17.26;69.88;98808.30;1748999;82;21016;-43
2022/07/10 02:39:36;;;;;;;3.10;2.45;;;;;;;17.17;70.15;98810.03;1748959;82;21136;-43
2022/07/10 02:42:05;;;;;;;2.75;2.30;;;;;;;17.07;70.49;98808.23;1748953;82;21026;-43
2022/07/10 02:44:31;;;;;;;2.90;2.20;;;;;;;17.00;70.77;98806.97;1748792;82;21040;-43
2022/07/10 02:46:59;;;;;;;2.60;2.40;;;;;;;16.89;71.04;98801.06;1748910;81;21077;-43
2022/07/10 02:49:26;;;;;;;2.35;2.08;;;;;;;16.79;71.36;98804.77;1735596;81;21022;-43
2022/07/10 02:51:53;;;;;;;4.45;2.50;;;;;;;16.69;71.60;98800.22;1735104;82;21237;-43
2022/07/10 02:54:20;;;;;;;5.22;2.47;;;;;;;16.62;72.00;98805.00;1734909;82;20930;-43
2022/07/10 02:56:47;;;;;;;3.12;2.33;;;;;;;16.58;72.22;98807.80;1735056;82;21021;-43
2022/07/10 02:59:14;;;;;;;3.98;2.35;;;;;;;16.60;72.35;98800.55;1735073;82;20975;-43
2022/07/10 03:01:41;;;;;;;3.42;2.30;;;;;;;16.59;72.40;98797.04;1734901;82;21029;-43
2022/07/10 03:04:08;;;;;;;2.55;2.35;;;;;;;16.59;72.55;98793.53;1735028;82;21235;-43
2022/07/10 03:06:35;;;;;;;3.17;2.50;;;;;;;16.56;72.68;98790.98;1734859;82;21021;-43
2022/07/10 03:09:02;;;;;;;5.92;2.55;;;;;;;16.53;72.82;98790.44;1735097;82;21071;-43
2022/07/10 03:11:31;;;;;;;4.28;2.95;;;;;;;16.53;73.05;98791.81;1735095;82;20929;-43
2022/07/10 03:13:58;;;;;;;5.72;2.27;;;;;;;16.52;73.08;98793.77;1735075;82;21011;-43
2022/07/10 03:16:25;;;;;;;2.72;2.37;;;;;;;16.54;73.18;98792.00;1735136;82;21532;-43
2022/07/10 03:18:52;;;;;;;4.42;2.52;;;;;;;16.55;73.26;98796.30;1734961;82;21013;-42
2022/07/10 03:21:20;;;;;;;2.62;2.42;;;;;;;16.60;73.33;98789.02;1734926;82;21022;-42
2022/07/10 03:23:46;;;;;;;2.58;2.30;;;;;;;16.34;73.23;98748.70;1734993;82;21017;-42
2022/07/10 03:26:15;;;;;;;4.85;2.70;;;;;;;16.69;73.10;98796.11;1735022;82;21010;-42
2022/07/10 03:28:42;;;;;;;2.83;2.37;;;;;;;16.72;73.09;98791.17;1734867;82;21299;-42
2022/07/10 03:31:09;;;;;;;6.08;2.55;;;;;;;16.77;72.97;98789.92;1735019;82;20918;-42
2022/07/10 03:33:36;;;;;;;3.15;2.50;;;;;;;16.82;72.83;98793.56;1735225;82;21528;-42
2022/07/10 03:36:04;;;;;;;2.75;2.22;;;;;;;16.87;72.80;98799.94;1735104;82;21499;-42
2022/07/10 03:38:31;;;;;;;2.77;2.40;;;;;;;16.90;72.63;98797.14;1735123;82;21025;-42
2022/07/10 03:40:59;;;;;;;2.40;2.10;;;;;;;16.95;72.48;98793.93;1735043;82;21250;-42
2022/07/10 03:43:26;;;;;;;2.83;2.10;;;;;;;16.99;72.39;98798.59;1734959;82;20977;-42
2022/07/10 03:45:52;;;;;;;3.17;2.33;;;;;;;17.03;72.23;98799.31;1734981;82;21009;-42
2022/07/10 03:48:20;;;;;;;3.08;2.22;;;;;;;17.09;72.19;98800.39;1739997;82;21034;-42
2022/07/10 03:50:51;;;;;;;2.33;2.00;;;;;;;17.18;71.94;98798.67;1748936;82;21021;-42
2022/07/10 03:53:19;;;;;;;3.37;2.02;;;;;;;17.27;71.82;98804.97;1749047;82;21055;-42
2022/07/10 03:55:46;;;;;;;2.30;1.98;;;;;;;17.37;71.46;98801.28;1749350;82;20965;-42
2022/07/10 03:58:13;;;;;;;3.12;1.98;;;;;;;17.45;70.89;98802.69;1749057;81;20976;-42
2022/07/10 04:00:42;;;;;;;2.75;1.70;;;;;;;17.50;70.64;98799.47;1748953;82;21368;-42
2022/07/10 04:03:09;;;;;;;3.23;1.90;;;;;;;17.56;70.77;98801.91;1749428;81;21526;-42
2022/07/10 04:05:36;;;;;;;2.10;1.90;;;;;;;17.63;70.47;98804.54;1748970;82;21238;-42
2022/07/10 04:08:04;;;;;;;2.10;1.90;;;;;;;17.74;70.28;98799.64;1749203;81;20998;-42
2022/07/10 04:10:32;;;;;;;2.85;1.87;;;;;;;17.86;69.84;98805.70;1749114;81;21217;-42
2022/07/10 04:12:59;;;;;;;3.45;1.77;;;;;;;17.93;69.57;98807.70;1749059;81;21029;-42
2022/07/10 04:15:27;;;;;;;4.08;2.10;;;;;;;18.00;69.40;98799.94;1749178;81;21025;-42
2022/07/10 04:17:54;;;;;;;5.12;1.90;;;;;;;18.09;69.38;98805.63;1749065;81;21230;-42
2022/07/10 04:20:21;;;;;;;5.17;2.00;;;;;;;18.18;68.96;98801.11;1749136;81;21543;-42
2022/07/10 04:22:49;;;;;;;2.62;1.70;;;;;;;18.30;68.43;98796.19;1748995;82;20978;-42
2022/07/10 04:25:16;;;;;;;2.37;1.60;;;;;;;18.36;68.28;98795.24;1749124;82;21033;-42
2022/07/10 04:27:44;;;;;;;3.95;1.82;;;;;;;18.42;67.90;98790.80;1748787;82;21515;-42
2022/07/10 04:30:11;;;;;;;2.55;1.80;;;;;;;18.49;67.73;98787.89;1749118;82;21305;-43
2022/07/10 04:32:38;;;;;;;2.77;1.70;;;;;;;18.53;67.42;98785.08;1748982;82;20898;-42
2022/07/10 04:35:07;;;;;;;2.15;1.52;;;;;;;18.57;67.43;98789.32;1749132;81;21017;-42
2022/07/10 04:37:34;;;;;;;4.50;1.80;;;;;;;18.66;67.72;98785.98;1748857;82;21049;-42
2022/07/10 04:40:01;;;;;;;2.72;2.00;;;;;;;18.77;67.62;98789.86;1749061;82;21013;-42
2022/07/10 04:42:28;;;;;;;1.87;1.60;;;;;;;18.85;67.17;98786.52;1749312;81;21539;-42
2022/07/10 04:44:55;;;;;;;1.90;1.70;;;;;;;18.92;66.97;98784.20;1748937;82;20973;-42
2022/07/10 04:47:22;;;;;;;2.20;1.50;;;;;;;18.95;66.75;98778.62;1748920;81;20993;-42
2022/07/10 04:49:49;;;;;;;3.77;1.70;;;;;;;19.00;66.53;98784.20;1748970;82;20972;-42
2022/07/10 04:52:16;;;;;;;4.17;1.82;;;;;;;19.03;66.27;98781.95;1748978;82;22059;-42
2022/07/10 04:54:44;;;;;;;2.98;2.12;;;;;;;19.12;66.50;98781.37;1749095;81;21123;-42
2022/07/10 04:57:10;;;;;;;3.42;1.62;;;;;;;19.22;66.11;98786.58;1748990;82;20981;-42
2022/07/10 04:59:37;;;;;;;2.45;1.67;;;;;;;19.24;65.48;98786.93;1748918;82;21025;-42
2022/07/10 05:02:04;;;;;;;3.47;1.65;;;;;;;19.22;65.63;98783.09;1748930;81;20982;-42
2022/07/10 05:04:32;;;;;;;2.17;1.60;;;;;;;19.19;65.40;98776.45;1749059;82;21036;-42
2022/07/10 05:06:59;;;;;;;2.87;1.80;;;;;;;19.17;65.45;98780.23;1748968;82;23171;-42
2022/07/10 05:09:26;;;;;;;2.08;1.70;;;;;;;19.20;65.57;98775.27;1749026;82;21555;-42
2022/07/10 05:11:53;;;;;;;2.02;1.80;;;;;;;19.21;65.84;98771.31;1749045;81;21009;-42
2022/07/10 05:14:21;;;;;;;2.42;1.85;;;;;;;19.26;65.88;98780.41;1748838;82;20994;-42
2022/07/10 05:16:48;;;;;;;2.10;1.80;;;;;;;19.30;65.36;98770.09;1748905;81;21356;-42
2022/07/10 05:19:16;;;;;;;4.05;1.90;;;;;;;19.27;64.95;98772.31;1749093;81;21077;-42
2022/07/10 05:21:43;;;;;;;3.25;1.77;;;;;;;19.26;65.50;98776.89;1748989;82;20914;-42
2022/07/10 05:24:10;;;;;;;4.92;2.00;;;;;;;19.27;65.05;98766.82;1749104;81;20981;-42
2022/07/10 05:26:37;;;;;;;3.00;2.00;;;;;;;19.27;65.43;98768.19;1748964;82;20957;-42
2022/07/10 05:29:04;;;;;;;2.52;1.80;;;;;;;19.30;65.23;98775.59;1749076;82;21551;-42
2022/07/10 05:31:32;;;;;;;2.12;1.92;;;;;;;19.39;65.08;98773.00;1748849;82;21849;-42
2022/07/10 05:33:59;;;;;;;5.22;2.17;;;;;;;19.47;64.51;98767.50;1749001;81;21554;-42
2022/07/10 05:36:26;;;;;;;5.30;2.30;;;;;;;19.57;64.80;98762.15;1749071;81;21504;-42
2022/07/10 05:38:53;;;;;;;3.12;2.10;;;;;;;19.68;64.65;98762.64;1749128;81;21004;-42
2022/07/10 05:41:20;;;;;;;4.75;2.15;;;;;;;19.79;64.36;98763.91;1749053;82;21049;-42
2022/07/10 05:43:47;;;;;;;2.17;1.90;;;;;;;19.86;64.04;98758.19;1748952;82;21216;-43
2022/07/10 05:46:14;;;;;;;2.52;1.98;;;;;;;19.88;63.46;98764.64;1748872;82;20977;-43
2022/07/10 05:48:43;;;;;;;3.77;2.20;;;;;;;19.88;62.85;98760.51;1745461;81;20985;-43
2022/07/10 05:51:11;;;;;;;4.35;2.00;;;;;;;19.88;62.89;98761.28;1734958;82;21046;-43
2022/07/10 05:53:38;;;;;;;2.62;1.98;;;;;;;19.94;62.27;98756.02;1735038;82;21046;-43
2022/07/10 05:56:06;;;;;;;8.85;2.40;;;;;;;19.91;62.62;98753.52;1735098;82;21124;-43
2022/07/10 05:58:33;;;;;;;4.58;2.20;;;;;;;19.94;62.99;98751.27;1735208;82;21022;-42
2022/07/10 06:01:01;;;;;;;3.15;2.20;;;;;;;20.04;62.74;98754.95;1734922;82;20957;-43
2022/07/10 06:03:28;;;;;;;2.92;2.58;;;;;;;20.12;62.17;98757.64;1734971;82;21090;-43
2022/07/10 06:05:56;;;;;;;3.30;2.20;;;;;;;20.16;61.62;98755.56;1735079;82;21013;-43
2022/07/10 06:08:24;;;;;;;4.47;2.02;;;;;;;20.20;61.59;98756.82;1734920;82;21520;-43
2022/07/10 06:10:52;;;;;;;2.05;1.85;;;;;;;20.25;61.29;98748.02;1734984;82;21073;-43
2022/07/10 06:13:19;;;;;;;5.78;2.10;;;;;;;20.33;61.91;98751.52;1735051;82;20948;-42
2022/07/10 06:15:46;;;;;;;3.33;1.90;;;;;;;20.46;61.00;98756.27;1734878;82;20986;-43
2022/07/10 06:18:14;;;;;;;3.02;1.85;;;;;;;20.59;60.41;98752.91;1714486;82;21036;-43
2022/07/10 06:20:40;;;;;;;2.30;1.75;;;;;;;20.71;60.22;98752.92;1735025;82;21149;-43
2022/07/10 06:23:07;;;;;;;1.55;1.40;;;;;;;20.83;60.07;98748.59;1735184;82;21563;-43
2022/07/10 06:25:34;;;;;;;3.05;1.70;;;;;;;20.92;58.68;98752.82;1734948;82;20990;-43
2022/07/10 06:28:02;;;;;;;2.10;1.60;;;;;;;20.97;58.90;98752.86;1734979;82;20942;-43
2022/07/10 06:30:29;;;;;;;3.20;1.55;;;;;;;21.03;58.28;98753.25;1735232;82;21073;-43
2022/07/10 06:32:56;;;;;;;5.17;1.98;;;;;;;21.14;58.27;98752.33;1735007;82;21132;-43
2022/07/10 06:35:25;;;;;;;3.65;1.77;;;;;;;21.24;58.04;98734.66;1735099;82;21009;-43
2022/07/10 06:37:52;;;;;;;3.25;1.72;;;;;;;21.37;57.66;98735.20;1734867;82;21590;-43
2022/07/10 06:40:20;;;;;;;2.55;1.80;;;;;;;21.46;57.34;98723.64;1735147;82;21523;-43
2022/07/10 06:42:48;;;;;;;4.05;1.90;;;;;;;21.58;57.03;98733.09;1735191;82;21093;-43
2022/07/10 06:45:17;;;;;;;1.82;1.60;;;;;;;21.67;57.30;98733.15;1735110;81;22035;-43
2022/07/10 06:47:57;;;;;;;2.37;1.70;;;;;;;21.73;56.72;98734.13;1734805;82;21380;-43
2022/07/10 06:50:29;;;;;;;1.85;1.45;;;;;;;21.78;56.21;98730.78;1746132;81;20985;-43
2022/07/10 06:52:57;;;;;;;2.30;1.50;;;;;;;21.87;57.21;98730.84;1749091;81;21041;-43
2022/07/10 06:55:24;;;;;;;3.27;1.60;;;;;;;21.98;56.31;98727.69;1748969;82;21013;-43
2022/07/10 06:57:51;;;;;;;5.47;1.90;;;;;;;22.08;56.36;98730.05;1748939;81;21124;-43
2022/07/10 07:00:18;;;;;;;5.20;1.87;;;;;;;22.15;56.15;98721.35;1748934;81;21017;-43
2022/07/10 07:03:52;;;;;;;3.37;2.05;;;;;;;22.27;55.33;98717.11;1773714;79;21797;-43
2022/07/10 07:06:19;;;;;;;2.15;1.55;;;;;;;22.25;55.54;98716.03;1746505;82;21098;-43
2022/07/10 07:08:47;;;;;;;4.28;1.60;;;;;;;22.33;55.36;98713.92;1746307;82;23218;-43
2022/07/10 07:11:14;;;;;;;3.87;1.90;;;;;;;22.41;55.04;98715.80;1746241;82;21517;-43
2022/07/10 07:13:42;;;;;;;1.82;1.62;;;;;;;22.51;54.61;98713.23;1746386;82;21524;-43
2022/07/10 07:16:11;;;;;;;2.50;1.85;;;;;;;22.65;54.04;98716.04;1746463;82;20979;-43
2022/07/10 07:18:47;;;;;;;3.70;1.82;;;;;;;22.79;52.35;98717.64;1746656;82;20948;-43
2022/07/10 07:23:53;;;;;;;4.15;1.70;;;;;;;22.96;51.02;98723.65;1746237;82;21591;-43
2022/07/10 07:26:20;;;;;;;3.08;1.92;;;;;;;23.06;50.80;98724.44;1746611;82;21572;-43
2022/07/10 07:28:47;;;;;;;3.70;2.10;;;;;;;23.13;50.55;98718.62;1746482;82;20963;-43
2022/07/10 07:31:17;;;;;;;4.00;2.12;;;;;;;23.16;49.25;98716.30;1746490;82;21020;-43
2022/07/10 07:33:44;;;;;;;3.83;2.00;;;;;;;23.15;49.99;98723.06;1746541;82;21246;-43
2022/07/10 07:36:12;;;;;;;3.83;2.42;;;;;;;23.19;49.44;98726.47;1746514;82;21022;-43
2022/07/10 07:38:39;;;;;;;4.90;2.42;;;;;;;23.25;50.64;98716.30;1746284;82;21086;-43
2022/07/10 07:41:06;;;;;;;3.83;2.55;;;;;;;23.41;50.98;98728.46;1746644;82;20999;-43
2022/07/10 07:43:34;;;;;;;3.85;2.30;;;;;;;23.55;49.54;98721.56;1746350;82;21019;-43
2022/07/10 07:46:02;;;;;;;4.35;2.52;;;;;;;23.60;48.96;98718.18;1746322;82;21250;-43
2022/07/10 07:48:29;;;;;;;3.10;1.98;;;;;;;23.66;50.81;98713.57;1746239;82;21549;-43
2022/07/10 07:50:56;;;;;;;2.90;1.75;;;;;;;23.52;48.58;98679.00;1746413;82;20996;-44
2022/07/10 07:53:23;;;;;;;3.00;1.75;;;;;;;23.72;47.22;98718.64;1746458;82;21094;-43
2022/07/10 07:55:50;;;;;;;2.12;1.50;;;;;;;23.65;47.91;98718.95;1782901;80;21064;-44
2022/07/10 07:58:17;;;;;;;2.30;1.80;;;;;;;23.64;47.48;98717.41;1788330;80;21285;-43
2022/07/10 08:00:44;;;;;;;1.62;1.30;;;;;;;23.63;48.34;98715.86;1788069;80;20983;-44
2022/07/10 08:03:11;;;;;;;1.95;1.40;;;;;;;23.63;46.87;98722.17;1785021;80;20961;-43
2022/07/10 08:05:39;;;;;;;2.22;1.20;;;;;;;23.65;46.46;98716.17;1783044;80;20940;-43
2022/07/10 08:08:08;;;;;;;2.27;1.55;;;;;;;23.68;46.51;98716.62;1783174;80;21009;-43
2022/07/10 08:10:35;;;;;;;2.73;1.70;;;;;;;23.73;46.61;98716.00;1783206;80;21306;-44
2022/07/10 08:13:04;;;;;;;3.55;1.70;;;;;;;23.76;47.02;98710.95;1782798;80;21506;-44
2022/07/10 08:15:34;;;;;;;3.60;1.20;;;;;;;23.81;46.79;98709.70;1782312;80;21523;-43
2022/07/10 08:18:04;;;;;;;2.98;1.57;;;;;;;23.93;46.28;98711.36;1782437;80;20989;-43
2022/07/10 08:20:31;;;;;;;2.65;1.50;;;;;;;24.04;45.40;98710.26;1782434;80;21029;-43
2022/07/10 08:22:58;;;;;;;2.02;1.55;;;;;;;24.13;46.07;98707.45;1782466;80;21138;-43
2022/07/10 08:25:25;;;;;;;2.37;1.50;;;;;;;24.21;45.81;98710.84;1782423;80;21009;-43
2022/07/10 08:27:52;;;;;;;2.22;1.50;;;;;;;24.35;45.71;98706.63;1782389;80;21001;-44
2022/07/10 08:30:19;;;;;;;2.98;1.20;;;;;;;24.46;44.78;98701.35;1782324;80;21031;-43
2022/07/10 08:32:47;;;;;;;1.95;1.17;;;;;;;24.55;44.52;98699.92;1782383;80;21091;-43
2022/07/10 08:35:14;;;;;;;2.10;1.40;;;;;;;24.56;44.35;98704.23;1782498;80;21879;-43
2022/07/10 08:37:42;;;;;;;1.62;1.22;;;;;;;24.56;44.48;98700.07;1782326;80;21028;-44
2022/07/10 08:40:12;;;;;;;2.45;1.20;;;;;;;24.61;44.94;98700.81;1782492;80;21029;-43
2022/07/10 08:42:41;;;;;;;4.60;1.50;;;;;;;24.69;45.43;98701.22;1782652;80;21060;-43
2022/07/10 08:45:09;;;;;;;2.15;1.30;;;;;;;24.85;45.24;98696.67;1782378;80;21048;-44
2022/07/10 08:47:38;;;;;;;3.33;1.05;;;;;;;25.02;42.81;98699.22;1782873;80;21751;-44
2022/07/10 08:50:09;;;;;;;2.62;1.70;;;;;;;25.06;44.19;98699.80;1782497;80;21527;-44
2022/07/10 08:52:43;;;;;;;3.27;1.80;;;;;;;25.11;43.90;98698.38;1781668;80;21520;-44
2022/07/10 08:55:14;;;;;;;3.72;2.10;;;;;;;25.17;43.88;98695.11;1782436;80;21060;-44
2022/07/10 08:57:43;;;;;;;4.12;2.12;;;;;;;25.26;43.95;98703.36;1782678;80;21064;-44
2022/07/10 09:00:11;;;;;;;4.85;2.22;;;;;;;25.31;43.70;98701.31;1782629;80;21210;-44
2022/07/10 09:02:40;;;;;;;3.98;1.77;;;;;;;25.31;44.09;98697.16;1782047;80;20964;-44
2022/07/10 09:05:08;;;;;;;1.87;1.65;;;;;;;25.41;43.74;98691.67;1782321;80;20953;-44
2022/07/10 09:07:41;;;;;;;3.72;1.82;;;;;;;25.57;43.68;98689.07;1782478;80;21017;-44
2022/07/10 09:10:10;;;;;;;3.72;1.60;;;;;;;25.71;42.57;98688.31;1782360;80;22040;-44
2022/07/10 09:12:52;;;;;;;2.47;1.72;;;;;;;25.86;43.28;98688.32;1782498;80;21056;-44
2022/07/10 09:15:23;;;;;;;6.62;2.98;;;;;;;26.00;42.67;98684.77;1782205;80;21027;-44
2022/07/10 09:17:56;;;;;;;;;;;;;;;26.09;42.92;98695.03;1785364;80;21019;-44
2022/07/10 09:20:38;;;;;;;4.30;2.20;;;;;;;26.14;42.47;98686.77;1782567;80;20197;-44
2022/07/10 09:23:17;;;;;;;3.55;2.00;;;;;;;26.05;42.43;98684.09;1782672;80;21534;-43
2022/07/10 09:25:45;;;;;;;3.00;1.85;;;;;;;26.05;42.51;98674.98;1782310;80;21864;-44
2022/07/10 09:28:13;;;;;;;3.40;1.87;;;;;;;26.05;42.46;98678.54;1782753;80;21008;-44
2022/07/10 09:30:41;;;;;;;2.08;1.30;;;;;;;26.12;42.46;98683.72;1782407;80;20969;-44
2022/07/10 09:33:31;;;;;;;1.95;1.50;;;;;;;26.15;41.70;98677.19;1782507;80;21021;-44
2022/07/10 09:36:13;;;;;;;5.00;2.02;;;;;;;26.17;41.54;98680.88;1782659;80;21681;-43
2022/07/10 09:38:51;;;;;;;2.77;1.70;;;;;;;26.15;41.83;98681.97;1782353;80;21137;-44
2022/07/10 09:41:27;;;;;;;4.70;1.92;;;;;;;26.14;41.67;98677.69;1782278;80;21507;-44
2022/07/10 09:43:59;;;;;;;2.83;1.50;;;;;;;26.17;41.46;98676.09;1782639;80;20981;-44
2022/07/10 09:46:36;;;;;;;2.35;1.70;;;;;;;26.20;41.36;98675.73;1782331;80;21025;-44
2022/07/10 09:49:09;;;;;;;2.95;1.47;;;;;;;26.14;41.62;98677.04;1781433;80;21084;-44
2022/07/10 09:51:39;;;;;;;2.90;1.70;;;;;;;26.16;41.05;98673.79;1782452;80;21246;-44
2022/07/10 09:54:08;;;;;;;3.95;1.67;;;;;;;26.19;40.90;98671.45;1782740;80;20972;-44
2022/07/10 09:56:46;;;;;;;4.47;2.20;;;;;;;26.20;41.43;98670.95;1782210;80;21586;-44
2022/07/10 09:59:16;;;;;;;5.05;1.90;;;;;;;26.23;41.23;98669.27;1782583;80;20996;-44
2022/07/10 10:01:46;;;;;;;2.17;1.30;;;;;;;26.20;41.23;98672.96;1781653;80;21024;-44
2022/07/10 10:04:18;;;;;;;2.95;1.50;;;;;;;26.02;42.00;98671.80;1782474;80;21866;-44
2022/07/10 10:07:00;;;;;;;3.35;1.32;;;;;;;26.02;42.00;98671.80;1782211;80;20964;-44
2022/07/10 10:09:44;;;;;;;1.87;1.35;;;;;;;25.90;42.09;98668.09;1782473;80;21171;-44
2022/07/10 10:12:20;;;;;;;3.98;2.02;;;;;;;25.82;42.38;98669.08;1782426;80;21566;-44
2022/07/10 10:14:47;;;;;;;3.52;1.90;;;;;;;25.75;41.86;98664.55;1782352;80;21080;-44
2022/07/10 10:17:16;;;;;;;2.33;1.75;;;;;;;25.61;42.38;98663.27;1782267;80;20965;-44
2022/07/10 10:22:15;;;;;;;3.95;2.15;;;;;;;25.39;42.30;98662.23;1717597;80;21554;-44
2022/07/10 10:24:43;;;;;;;6.58;2.00;;;;;;;25.33;42.75;98664.12;1782390;80;21028;-44
2022/07/10 10:27:10;;;;;;;2.15;1.67;;;;;;;25.33;42.79;98664.75;1782434;80;21083;-44
2022/07/10 10:29:38;;;;;;;2.00;1.60;;;;;;;25.35;43.30;98658.11;1782415;80;21319;-44
2022/07/10 10:32:07;;;;;;;2.27;1.45;;;;;;;25.36;42.25;98655.48;1782310;80;20993;-44
2022/07/10 10:34:48;;;;;;;2.67;1.45;;;;;;;25.42;42.28;98654.95;1752710;80;21016;-44
2022/07/10 10:37:36;;;;;;;3.00;1.40;;;;;;;25.52;42.33;98649.45;1782462;80;21012;-44
2022/07/10 10:40:09;;;;;;;1.90;1.55;;;;;;;25.60;42.06;98649.89;1782382;80;21032;-44
2022/07/10 10:42:44;;;;;;;3.00;1.40;;;;;;;25.57;41.53;98652.22;1777179;80;23135;-44
2022/07/10 10:45:34;;;;;;;2.92;1.70;;;;;;;25.54;41.56;98649.77;1782203;80;20965;-44
2022/07/10 10:48:09;;;;;;;2.65;1.42;;;;;;;25.56;40.70;98643.77;1782329;80;21015;-44
2022/07/10 10:50:47;;;;;;;3.12;1.47;;;;;;;25.53;41.48;98644.83;1782612;80;20989;-44
2022/07/10 10:53:18;;;;;;;2.50;1.40;;;;;;;25.52;41.17;98653.63;1782529;80;21095;-44
2022/07/10 10:56:07;;;;;;;2.25;1.50;;;;;;;25.47;41.15;98641.80;1782378;80;21248;-44
2022/07/10 10:58:41;;;;;;;1.42;1.12;;;;;;;25.36;40.95;98649.94;1782375;80;20960;-44
2022/07/10 11:01:29;;;;;;;3.30;1.40;;;;;;;25.27;41.73;98646.60;1782586;80;20961;-44
2022/07/10 11:04:17;;;;;;;1.65;1.30;;;;;;;25.26;41.95;98645.09;1782617;80;21041;-44
2022/07/10 11:06:52;;;;;;;1.87;1.10;;;;;;;25.21;41.92;98633.27;1782620;80;21892;-44
2022/07/10 11:09:28;;;;;;;1.85;1.02;;;;;;;25.21;42.22;98637.43;1781727;80;21156;-44
2022/07/10 11:12:08;;;;;;;2.15;1.45;;;;;;;25.20;42.50;98635.13;1782478;80;21519;-44
2022/07/10 11:14:42;;;;;;;2.27;1.57;;;;;;;25.21;42.69;98628.34;1768075;80;21080;-44
2022/07/10 11:17:10;;;;;;;3.15;1.92;;;;;;;25.25;43.29;98628.91;1782353;80;20936;-44
2022/07/10 11:19:38;;;;;;;2.65;1.60;;;;;;;25.42;43.18;98622.42;1782614;80;21084;-44
2022/07/10 11:22:42;;;;;;;3.37;1.67;;;;;;;25.68;43.37;98621.27;1782541;80;21309;-44
2022/07/10 11:26:01;;;;;;;3.77;1.75;;;;;;;25.92;41.94;98626.08;1782484;80;20988;-44
2022/07/10 11:28:25;;;;;;;2.83;1.20;;;;;;;26.10;41.67;98620.91;1781120;80;28246;-44
2022/07/10 11:30:54;;;;;;;2.00;1.05;;;;;;;26.24;40.46;98617.98;1782533;80;21016;-43
2022/07/10 11:33:22;;;;;;;2.47;1.20;;;;;;;26.39;40.82;98621.48;1782768;80;21636;-44
2022/07/10 11:35:51;;;;;;;1.57;1.25;;;;;;;26.57;40.75;98618.47;1782769;80;21867;-44
2022/07/10 11:38:23;;;;;;;3.35;1.40;;;;;;;26.77;40.36;98617.06;1782757;80;28229;-44
2022/07/10 11:40:52;;;;;;;3.27;1.22;;;;;;;27.15;39.74;98611.86;1783086;80;21025;-44
2022/07/10 11:43:23;;;;;;;2.02;1.30;;;;;;;27.63;39.09;98613.49;1782677;80;21013;-44
2022/07/10 11:45:48;;;;;;;1.47;0.98;;;;;;;28.09;36.99;98607.75;1782438;80;21065;-43
2022/07/10 11:48:21;;;;;;;2.17;1.20;;;;;;;28.27;36.11;98612.86;1782632;80;21243;-44
2022/07/10 11:50:48;;;;;;;3.20;1.00;;;;;;;28.29;36.71;98620.84;1782582;80;21004;-44